GMT,Max TemperatureF,Mean TemperatureF,Min TemperatureF,Max Dew PointF,MeanDew PointF,Min DewpointF,Max Humidity, Mean Humidity, Min Humidity, Max Sea Level PressureIn, Mean Sea Level PressureIn, Min Sea Level PressureIn, Max VisibilityMiles, Mean VisibilityMiles, Min VisibilityMiles, Max Wind SpeedMPH, Mean Wind SpeedMPH, Max Gust SpeedMPH,PrecipitationIn, CloudCover, Events, WindDirDegrees
2013-1-1,46,42,37,45,39,34,93,84,75,30.09,29.87,29.62,16,7,4,26,10,,0.02,4,Rain,266
2013-1-2,53,49,45,52,50,45,100,98,93,30.33,30.18,30.09,16,4,1,16,11,,0.02,7,Rain,229
2013-1-3,55,52,49,52,50,48,100,95,82,30.54,30.43,30.33,19,6,2,12,9,,0.00,6,Rain,193
2013-1-4,52,48,45,48,47,45,94,89,82,30.55,30.49,30.39,19,7,6,22,11,,0.00,6,,153
2013-1-5,54,50,46,52,48,45,100,91,79,30.43,30.37,30.30,12,6,2,22,14,,0.08,5,Rain,160
2013-1-6,53,50,46,50,49,46,100,93,84,30.40,30.25,30.15,16,6,1,20,13,,0.16,6,Rain,144
2013-1-7,55,52,50,52,51,48,100,95,88,30.15,30.01,29.95,16,6,3,17,12,,0.12,6,Rain,141
2013-1-8,54,44,35,52,45,36,100,93,76,30.27,30.15,29.95,16,6,0,16,9,,0.00,4,Fog-Rain,247
2013-1-9,43,38,33,43,37,34,100,97,87,30.26,30.15,30.01,12,3,0,14,6,,0.00,6,Fog,122
2013-1-10,49,44,37,45,40,36,100,86,64,30.04,29.95,29.83,12,6,4,24,12,,0.02,4,Rain,170
2013-1-11,49,42,35,46,41,36,100,91,76,30.06,29.87,29.68,12,6,0,18,10,,0.02,5,Fog-Rain,124
2013-1-12,46,44,39,43,40,36,93,87,74,30.06,29.82,29.65,12,7,5,20,10,,0.00,5,Rain,49
2013-1-13,47,38,30,45,37,30,100,93,81,30.21,30.16,30.06,12,6,2,12,5,,0.00,5,Rain,273
2013-1-14,47,42,37,45,40,34,93,85,71,30.17,30.04,29.98,16,7,5,16,11,,0.00,5,Rain,294
2013-1-15,41,36,32,39,36,32,100,93,82,30.03,29.87,29.65,16,7,6,16,7,,0.02,5,Rain,101
2013-1-16,47,43,39,48,42,37,100,96,87,29.86,29.75,29.65,7,4,1,15,11,,0.08,6,Rain,159
2013-1-17,48,45,42,48,44,41,100,95,82,29.87,29.65,29.33,16,6,4,25,9,,0.00,6,Rain,131
2013-1-18,48,44,41,47,42,37,100,92,76,29.31,29.27,29.21,10,6,4,18,11,,0.08,5,Rain,255
2013-1-19,41,36,32,40,36,32,100,94,81,29.56,29.45,29.27,12,4,0,12,4,,0.00,6,Fog-Rain,108
2013-1-20,37,35,33,34,30,28,93,79,64,29.56,29.41,29.30,12,6,3,21,11,,0.00,5,,101
2013-1-21,38,34,30,36,32,28,100,90,63,29.39,29.34,29.33,12,5,2,12,8,,0.04,6,Fog-Rain-Snow,106
2013-1-22,33,30,26,32,29,27,100,97,93,29.71,29.54,29.36,5,1,0,12,4,,0.00,6,Fog-Rain,108
2013-1-23,39,34,30,36,33,30,93,88,77,29.83,29.69,29.62,9,5,2,18,10,,0.02,6,Rain,101
2013-1-24,43,38,33,41,36,32,93,89,76,29.96,29.90,29.83,9,4,1,16,9,,0.01,6,Rain,127
2013-1-25,49,45,41,48,43,37,100,89,76,29.82,29.58,29.39,16,6,2,25,16,,0.43,6,Rain,189
2013-1-26,53,46,40,52,44,37,94,90,75,29.71,29.46,29.03,16,7,4,23,11,38,0.08,6,Rain,192
2013-1-27,45,42,39,46,36,32,93,79,59,29.47,29.24,29.03,12,6,5,34,20,53,0.08,5,Rain,235
2013-1-28,52,45,38,47,40,34,93,78,62,29.56,29.33,29.12,16,6,1,41,21,63,0.28,5,Rain,214
2013-1-29,56,49,42,54,44,39,100,86,73,29.45,29.32,29.15,12,6,4,30,13,44,0.03,5,Rain,189
2013-1-30,49,46,42,45,39,34,93,74,58,29.84,29.61,29.36,12,6,4,40,21,62,0.03,5,Rain,223
2013-1-31,50,46,41,43,39,36,93,77,62,29.81,29.72,29.53,12,6,4,40,26,58,0.08,4,Rain-Hail-Thunderstorm,243